createdAt,value
2023-02-23T00:01:20.943Z,44.47
2023-02-23T00:03:49.059Z,50.17
2023-02-23T00:06:17.936Z,51.50
2023-02-23T00:08:46.024Z,46.40
2023-02-23T00:11:13.556Z,54.27
2023-02-23T00:13:41.912Z,53.20
2023-02-23T00:16:10.357Z,52.50
2023-02-23T00:18:37.949Z,51.47
2023-02-23T00:21:05.554Z,53.07
2023-02-23T00:23:33.153Z,52.80
2023-02-23T00:26:00.612Z,54.10
2023-02-23T00:28:28.184Z,55.07
2023-02-23T00:30:55.771Z,52.03
2023-02-23T00:33:23.431Z,49.93
2023-02-23T00:35:50.945Z,56.57
2023-02-23T00:38:18.540Z,52.00
2023-02-23T00:40:46.147Z,51.03
2023-02-23T00:43:13.744Z,52.30
2023-02-23T00:45:41.268Z,50.83
2023-02-23T00:48:08.845Z,49.53
2023-02-23T00:50:36.331Z,48.97
2023-02-23T00:53:03.906Z,51.53
2023-02-23T00:55:31.427Z,52.10
2023-02-23T00:57:58.966Z,47.73
2023-02-23T01:00:26.490Z,56.87
2023-02-23T01:02:54.057Z,53.53
2023-02-23T01:05:21.536Z,48.80
2023-02-23T01:07:49.082Z,55.23
2023-02-23T01:10:16.706Z,51.77
2023-02-23T01:12:44.271Z,49.40
2023-02-23T01:15:11.818Z,48.70
2023-02-23T01:17:39.801Z,50.87
2023-02-23T01:20:07.486Z,49.20
2023-02-23T01:22:35.041Z,60.13
2023-02-23T01:25:02.548Z,52.00
2023-02-23T01:27:30.113Z,51.93
2023-02-23T01:29:57.606Z,48.40
2023-02-23T01:32:25.260Z,50.03
2023-02-23T01:34:52.781Z,57.47
2023-02-23T01:37:20.369Z,49.90
2023-02-23T01:39:47.919Z,52.03
2023-02-23T01:42:15.607Z,50.30
2023-02-23T01:44:43.043Z,54.90
2023-02-23T01:47:10.628Z,48.27
2023-02-23T01:49:38.211Z,48.47
2023-02-23T01:52:07.360Z,49.17
2023-02-23T01:54:37.303Z,54.77
2023-02-23T01:57:06.118Z,49.23
2023-02-23T01:59:37.562Z,52.70
2023-02-23T02:02:05.292Z,52.70
2023-02-23T02:04:37.633Z,53.53
2023-02-23T02:07:05.270Z,56.77
2023-02-23T02:09:32.985Z,48.23
2023-02-23T02:12:00.538Z,55.27
2023-02-23T02:14:30.078Z,54.70
2023-02-23T02:16:57.630Z,52.97
2023-02-23T02:19:43.783Z,49.77
2023-02-23T02:22:26.467Z,53.47
2023-02-23T02:25:02.913Z,55.27
2023-02-23T02:27:39.403Z,53.07
2023-02-23T02:30:09.999Z,51.77
2023-02-23T02:32:40.366Z,57.73
2023-02-23T02:35:14.120Z,58.70
2023-02-23T02:37:55.284Z,50.30
2023-02-23T02:40:29.163Z,59.57
2023-02-23T02:43:01.003Z,58.73
2023-02-23T02:45:36.964Z,54.47
2023-02-23T02:48:04.531Z,56.30
2023-02-23T02:50:42.187Z,57.53
2023-02-23T02:53:11.333Z,62.27
2023-02-23T02:55:40.802Z,60.47
2023-02-23T02:58:08.639Z,63.73
2023-02-23T03:00:38.285Z,58.87
2023-02-23T03:03:06.151Z,57.43
2023-02-23T03:05:36.625Z,69.90
2023-02-23T03:08:04.261Z,64.00
2023-02-23T03:10:43.183Z,68.00
2023-02-23T03:13:13.804Z,68.87
2023-02-23T03:15:47.731Z,70.23
2023-02-23T03:18:33.684Z,66.03
2023-02-23T03:21:06.246Z,64.63
2023-02-23T03:23:36.792Z,71.73
2023-02-23T03:26:10.231Z,64.33
2023-02-23T03:28:41.932Z,65.07
2023-02-23T03:31:15.505Z,73.33
2023-02-23T03:33:47.388Z,73.93
2023-02-23T03:36:18.478Z,79.20
2023-02-23T03:38:48.355Z,77.67
2023-02-23T03:41:17.621Z,71.53
2023-02-23T03:43:57.032Z,79.03
2023-02-23T03:46:26.271Z,68.37
2023-02-23T03:48:55.201Z,70.90
2023-02-23T03:51:23.948Z,73.20
2023-02-23T03:54:04.820Z,78.10
2023-02-23T03:56:34.158Z,72.03
2023-02-23T03:59:03.379Z,77.53
2023-02-23T04:01:32.209Z,82.97
2023-02-23T04:04:00.389Z,71.83
2023-02-23T04:06:29.522Z,74.67
2023-02-23T04:08:58.564Z,85.93
2023-02-23T04:11:35.483Z,80.80
2023-02-23T04:14:05.344Z,79.93
2023-02-23T04:16:33.349Z,81.00
2023-02-23T04:19:01.638Z,77.10
2023-02-23T04:21:29.162Z,78.43
2023-02-23T04:23:56.668Z,85.13
2023-02-23T04:26:24.226Z,83.57
2023-02-23T04:28:51.789Z,81.23
2023-02-23T04:31:20.196Z,76.67
2023-02-23T04:33:49.045Z,80.60
2023-02-23T04:36:16.557Z,81.77
2023-02-23T04:38:44.069Z,85.80
2023-02-23T04:41:11.605Z,92.63
2023-02-23T04:43:39.107Z,89.87
2023-02-23T04:46:06.682Z,100.87
2023-02-23T04:48:34.278Z,80.03
2023-02-23T04:51:01.855Z,86.53
2023-02-23T04:53:29.346Z,88.90
2023-02-23T04:55:57.024Z,80.57
2023-02-23T04:58:24.529Z,84.93
2023-02-23T05:00:52.133Z,98.87
2023-02-23T05:03:19.622Z,80.87
2023-02-23T05:05:47.196Z,93.47
2023-02-23T05:08:14.718Z,83.50
2023-02-23T05:10:42.225Z,80.37
2023-02-23T05:13:09.699Z,78.30
2023-02-23T05:15:37.383Z,76.60
2023-02-23T05:18:04.992Z,86.57
2023-02-23T05:20:32.604Z,83.83
2023-02-23T05:23:01.700Z,82.47
2023-02-23T05:25:29.265Z,73.17
2023-02-23T05:27:56.769Z,76.07
2023-02-23T05:30:24.438Z,75.67
2023-02-23T05:32:51.984Z,75.83
2023-02-23T05:35:19.630Z,85.00
2023-02-23T05:37:47.188Z,74.23
2023-02-23T05:40:14.947Z,74.13
2023-02-23T05:42:42.473Z,77.80
2023-02-23T05:45:10.255Z,76.90
2023-02-23T05:47:37.949Z,71.50
2023-02-23T05:50:06.494Z,78.70
2023-02-23T05:52:33.994Z,77.47
2023-02-23T05:55:01.587Z,77.33
2023-02-23T05:57:29.088Z,80.93
2023-02-23T05:59:56.662Z,81.00
2023-02-23T06:02:24.220Z,85.97
2023-02-23T06:04:51.868Z,74.40
2023-02-23T06:07:19.395Z,86.97
2023-02-23T06:09:47.002Z,87.10
2023-02-23T06:12:14.541Z,84.63
2023-02-23T06:14:42.090Z,87.53
2023-02-23T06:17:09.604Z,92.20
2023-02-23T06:19:37.210Z,100.70
2023-02-23T06:22:04.771Z,92.00
2023-02-23T06:24:32.261Z,111.97
2023-02-23T06:26:59.765Z,124.50
2023-02-23T06:29:27.434Z,106.23
2023-02-23T06:31:55.031Z,116.63
2023-02-23T06:34:22.683Z,72.17
2023-02-23T06:36:50.268Z,86.43
2023-02-23T06:39:17.879Z,104.07
2023-02-23T06:41:45.382Z,99.37
2023-02-23T06:44:12.964Z,102.23
2023-02-23T06:46:40.595Z,93.20
2023-02-23T06:49:08.158Z,98.07
2023-02-23T06:51:35.614Z,101.07
2023-02-23T06:54:03.204Z,123.03
2023-02-23T06:56:30.692Z,101.70
2023-02-23T06:58:58.213Z,124.87
2023-02-23T07:01:25.763Z,103.20
2023-02-23T07:03:53.416Z,111.10
2023-02-23T07:06:20.938Z,141.83
2023-02-23T07:08:48.521Z,130.03
2023-02-23T07:11:17.120Z,122.63
2023-02-23T07:13:44.938Z,98.27
2023-02-23T07:16:12.480Z,142.70
2023-02-23T07:18:40.106Z,150.57
2023-02-23T07:21:07.672Z,143.27
2023-02-23T07:23:35.257Z,153.73
2023-02-23T07:26:02.746Z,165.13
2023-02-23T07:28:30.421Z,147.77
2023-02-23T07:30:58.319Z,132.00
2023-02-23T07:33:26.225Z,184.10
2023-02-23T07:35:53.813Z,139.97
2023-02-23T07:38:21.444Z,153.63
2023-02-23T07:40:50.519Z,154.30
2023-02-23T07:43:18.200Z,155.20
2023-02-23T07:45:46.849Z,137.30
2023-02-23T07:48:14.556Z,148.40
2023-02-23T07:50:42.224Z,140.13
2023-02-23T07:53:09.990Z,143.53
2023-02-23T07:55:37.852Z,130.27
2023-02-23T07:58:05.995Z,129.00
2023-02-23T08:00:34.122Z,145.63
2023-02-23T08:03:01.715Z,123.27
2023-02-23T08:05:29.321Z,126.17
2023-02-23T08:07:58.040Z,101.77
2023-02-23T08:10:25.732Z,148.80
2023-02-23T08:12:53.401Z,116.77
2023-02-23T08:15:20.981Z,113.07
2023-02-23T08:17:48.580Z,106.53
2023-02-23T08:20:16.148Z,118.30
2023-02-23T08:22:49.662Z,109.07
2023-02-23T08:25:18.307Z,115.73
2023-02-23T08:27:46.042Z,116.20
2023-02-23T08:30:13.880Z,116.60
2023-02-23T08:32:41.531Z,104.77
2023-02-23T08:35:10.502Z,102.37
2023-02-23T08:37:38.103Z,135.07
2023-02-23T08:40:06.085Z,106.03
2023-02-23T08:42:33.759Z,117.17
2023-02-23T08:45:01.360Z,109.10
2023-02-23T08:47:29.000Z,106.47
2023-02-23T08:49:56.708Z,108.90
2023-02-23T08:52:24.238Z,97.53
2023-02-23T08:54:51.885Z,91.00
2023-02-23T08:57:19.398Z,86.30
2023-02-23T08:59:46.932Z,95.57
2023-02-23T09:02:15.310Z,87.40
2023-02-23T09:04:42.910Z,92.10
2023-02-23T09:07:13.928Z,98.17
2023-02-23T09:09:41.692Z,89.03
2023-02-23T09:12:09.318Z,99.10
2023-02-23T09:14:36.911Z,92.50
2023-02-23T09:17:04.740Z,100.27
2023-02-23T09:19:32.362Z,104.37
2023-02-23T09:21:59.866Z,99.93
2023-02-23T09:24:27.531Z,89.53
2023-02-23T09:26:55.084Z,89.57
2023-02-23T09:29:22.634Z,80.63
2023-02-23T09:31:50.249Z,91.80
2023-02-23T09:34:17.839Z,86.77
2023-02-23T09:36:45.423Z,81.37
2023-02-23T09:39:12.988Z,73.30
2023-02-23T09:41:51.212Z,81.27
2023-02-23T09:44:21.957Z,80.97
2023-02-23T09:46:58.397Z,78.70
2023-02-23T09:49:28.577Z,78.37
2023-02-23T09:51:58.685Z,78.73
2023-02-23T09:54:31.377Z,80.00
2023-02-23T09:57:02.441Z,86.47
2023-02-23T09:59:30.234Z,67.10
2023-02-23T10:02:16.359Z,73.13
2023-02-23T10:04:49.162Z,73.60
2023-02-23T10:07:39.232Z,69.00
2023-02-23T10:10:15.862Z,65.23
2023-02-23T10:12:55.543Z,53.87
2023-02-23T10:15:46.484Z,65.37
2023-02-23T10:18:22.329Z,61.53
2023-02-23T10:20:49.936Z,64.47
2023-02-23T10:23:19.598Z,67.70
2023-02-23T10:25:48.913Z,62.97
2023-02-23T10:28:17.677Z,64.47
2023-02-23T10:30:48.900Z,58.60
2023-02-23T10:33:19.398Z,57.83
2023-02-23T10:35:47.200Z,62.87
2023-02-23T10:38:16.192Z,57.90
2023-02-23T10:40:45.107Z,60.07
2023-02-23T10:43:13.722Z,55.67
2023-02-23T10:45:45.838Z,59.17
2023-02-23T10:48:19.388Z,63.77
2023-02-23T10:50:49.266Z,63.00
2023-02-23T10:53:18.919Z,58.60
2023-02-23T10:55:47.972Z,59.37
2023-02-23T10:58:17.065Z,67.40
2023-02-23T11:00:52.142Z,66.73
2023-02-23T11:03:24.492Z,59.47
2023-02-23T11:05:52.178Z,63.43
2023-02-23T11:08:25.455Z,60.00
2023-02-23T11:10:56.400Z,60.23
2023-02-23T11:13:25.079Z,66.67
2023-02-23T11:16:13.047Z,59.17
2023-02-23T11:18:42.350Z,51.33
2023-02-23T11:21:11.010Z,52.03
2023-02-23T11:23:40.061Z,51.00
2023-02-23T11:26:20.705Z,46.90
2023-02-23T11:28:48.580Z,46.83
2023-02-23T11:31:24.057Z,44.73
2023-02-23T11:33:53.960Z,40.43
2023-02-23T11:36:24.626Z,44.50
2023-02-23T11:39:04.297Z,45.03
2023-02-23T11:41:32.434Z,43.70
2023-02-23T11:44:00.774Z,47.50
2023-02-23T11:46:28.968Z,47.17
2023-02-23T11:49:04.366Z,48.67
2023-02-23T11:51:33.673Z,50.80
2023-02-23T11:54:03.166Z,47.10
2023-02-23T11:56:32.956Z,44.67
2023-02-23T11:59:08.448Z,40.83
2023-02-23T12:01:41.224Z,36.80
2023-02-23T12:04:09.564Z,38.67
2023-02-23T12:06:37.169Z,39.00
2023-02-23T12:09:10.960Z,42.30
2023-02-23T12:11:40.235Z,36.93
2023-02-23T12:14:23.211Z,38.97
2023-02-23T12:16:54.118Z,35.30
2023-02-23T12:19:21.684Z,33.90
2023-02-23T12:21:51.766Z,30.53
2023-02-23T12:24:19.267Z,35.63
2023-02-23T12:26:50.990Z,32.17
2023-02-23T12:29:27.456Z,33.63
2023-02-23T12:31:58.201Z,35.27
2023-02-23T12:34:28.876Z,33.37
2023-02-23T12:37:15.862Z,33.13
2023-02-23T12:39:45.776Z,39.00
2023-02-23T12:42:31.994Z,40.67
2023-02-23T12:45:00.651Z,37.97
2023-02-23T12:47:37.278Z,37.67
2023-02-23T12:50:19.904Z,39.70
2023-02-23T12:52:47.463Z,41.60
2023-02-23T12:55:15.014Z,43.77
2023-02-23T12:57:45.561Z,40.63
2023-02-23T13:00:16.210Z,45.70
2023-02-23T13:02:48.034Z,39.83
2023-02-23T13:05:15.670Z,40.37
2023-02-23T13:07:48.257Z,39.20
2023-02-23T13:10:37.571Z,47.33
2023-02-23T13:13:08.109Z,43.07
2023-02-23T13:15:47.533Z,43.93
2023-02-23T13:18:34.848Z,47.33
2023-02-23T13:21:14.383Z,44.57
2023-02-23T13:23:45.739Z,42.07
2023-02-23T13:26:25.644Z,40.80
2023-02-23T13:29:02.055Z,41.13
2023-02-23T13:31:40.317Z,42.07
2023-02-23T13:34:13.072Z,41.30
2023-02-23T13:36:41.053Z,42.73
2023-02-23T13:39:27.503Z,38.97
2023-02-23T13:42:13.738Z,40.37
2023-02-23T13:44:46.461Z,36.80
2023-02-23T13:47:23.408Z,37.93
2023-02-23T13:50:01.302Z,40.63
2023-02-23T13:52:28.925Z,39.80
2023-02-23T13:54:58.129Z,35.07
2023-02-23T13:57:27.848Z,32.10
2023-02-23T13:59:55.549Z,39.30
2023-02-23T14:02:23.326Z,40.40
2023-02-23T14:04:51.412Z,37.07
2023-02-23T14:07:23.586Z,41.17
2023-02-23T14:09:51.301Z,39.57
2023-02-23T14:12:24.516Z,39.10
2023-02-23T14:14:52.119Z,42.33
2023-02-23T14:17:19.648Z,43.20
2023-02-23T14:20:06.806Z,38.37
2023-02-23T14:22:34.976Z,37.73
2023-02-23T14:25:21.665Z,43.30
2023-02-23T14:27:57.671Z,37.97
2023-02-23T14:30:27.309Z,35.23
2023-02-23T14:32:55.313Z,34.93
2023-02-23T14:35:34.821Z,35.30
2023-02-23T14:38:04.515Z,33.80
2023-02-23T14:40:33.611Z,37.73
2023-02-23T14:43:04.418Z,38.10
2023-02-23T14:45:34.766Z,35.47
2023-02-23T14:48:06.101Z,32.57
2023-02-23T14:50:35.169Z,33.13
2023-02-23T14:53:03.839Z,33.57
2023-02-23T14:55:32.653Z,33.23
2023-02-23T14:58:00.990Z,31.93
2023-02-23T15:00:30.131Z,29.27
2023-02-23T15:02:59.223Z,30.43
2023-02-23T15:05:31.095Z,30.23
2023-02-23T15:07:59.956Z,33.20
2023-02-23T15:10:30.657Z,30.53
2023-02-23T15:12:58.948Z,36.20
2023-02-23T15:15:26.886Z,27.83
2023-02-23T15:17:56.650Z,28.43
2023-02-23T15:20:27.842Z,32.60
2023-02-23T15:22:59.472Z,37.03
2023-02-23T15:25:37.841Z,35.80
2023-02-23T15:28:32.458Z,34.93
2023-02-23T15:31:04.656Z,26.97
2023-02-23T15:33:32.790Z,31.50
2023-02-23T15:36:29.632Z,30.13
2023-02-23T15:39:00.673Z,32.83
2023-02-23T15:41:35.316Z,31.97
2023-02-23T15:44:05.808Z,35.20
2023-02-23T15:46:33.893Z,34.00
2023-02-23T15:49:01.983Z,31.40
2023-02-23T15:51:29.582Z,34.27
2023-02-23T15:53:57.512Z,35.77
2023-02-23T15:56:29.332Z,35.27
2023-02-23T15:58:58.431Z,34.67
2023-02-23T16:01:28.125Z,34.10
2023-02-23T16:04:01.634Z,32.77
2023-02-23T16:06:36.604Z,36.33
2023-02-23T16:09:13.036Z,33.80
2023-02-23T16:11:40.753Z,33.00
2023-02-23T16:14:14.528Z,33.53
2023-02-23T16:16:42.193Z,32.67
2023-02-23T16:19:13.101Z,34.53
2023-02-23T16:21:40.739Z,33.77
2023-02-23T16:24:14.589Z,34.77
2023-02-23T16:26:53.327Z,34.30
2023-02-23T16:29:47.617Z,35.10
2023-02-23T16:32:19.107Z,33.63
2023-02-23T16:34:52.928Z,35.43
2023-02-23T16:37:23.339Z,37.30
2023-02-23T16:39:53.212Z,35.77
2023-02-23T16:42:26.099Z,37.57
2023-02-23T16:44:57.227Z,32.97
2023-02-23T16:47:25.056Z,35.77
2023-02-23T16:49:55.436Z,29.87
2023-02-23T16:52:26.642Z,34.00
2023-02-23T16:54:55.975Z,35.57
2023-02-23T16:57:39.678Z,28.77
2023-02-23T17:00:12.328Z,29.73
2023-02-23T17:02:39.897Z,25.83
2023-02-23T17:05:14.614Z,29.30
2023-02-23T17:07:42.462Z,29.90
2023-02-23T17:10:11.121Z,25.63
2023-02-23T17:12:38.684Z,29.33
2023-02-23T17:15:10.654Z,27.60
2023-02-23T17:17:38.238Z,27.27
2023-02-23T17:20:05.972Z,36.00
2023-02-23T17:22:33.540Z,28.43
2023-02-23T17:25:01.423Z,26.57
2023-02-23T17:27:31.211Z,30.30
2023-02-23T17:29:58.944Z,26.63
2023-02-23T17:32:29.596Z,23.17
2023-02-23T17:34:58.422Z,24.60
2023-02-23T17:37:29.091Z,19.83
2023-02-23T17:39:56.672Z,25.40
2023-02-23T17:42:29.622Z,26.83
2023-02-23T17:44:57.244Z,20.47
2023-02-23T17:47:24.778Z,24.37
2023-02-23T17:49:52.404Z,22.30
2023-02-23T17:52:19.909Z,23.27
2023-02-23T17:54:47.444Z,23.07
2023-02-23T17:57:15.060Z,18.53
2023-02-23T17:59:42.639Z,23.40
2023-02-23T18:02:17.344Z,22.27
2023-02-23T18:04:45.077Z,22.40
2023-02-23T18:07:12.622Z,20.87
2023-02-23T18:09:40.546Z,23.20
2023-02-23T18:12:08.688Z,24.17
2023-02-23T18:14:36.300Z,22.93
2023-02-23T18:17:04.703Z,20.80
2023-02-23T18:19:32.460Z,22.67
2023-02-23T18:22:00.037Z,24.40
2023-02-23T18:24:28.701Z,26.47
2023-02-23T18:26:56.274Z,21.93
2023-02-23T18:29:23.855Z,22.77
2023-02-23T18:31:51.486Z,22.63
2023-02-23T18:34:19.131Z,18.07
2023-02-23T18:36:46.662Z,23.43
2023-02-23T18:39:14.405Z,23.13
2023-02-23T18:41:42.437Z,23.07
2023-02-23T18:44:13.180Z,23.63
2023-02-23T18:46:41.456Z,19.47
2023-02-23T18:49:12.421Z,22.50
2023-02-23T18:51:41.701Z,25.57
2023-02-23T18:54:10.029Z,25.20
2023-02-23T18:56:37.660Z,25.70
2023-02-23T18:59:05.223Z,23.03
2023-02-23T19:01:33.782Z,26.10
2023-02-23T19:04:02.756Z,20.90
2023-02-23T19:06:30.878Z,21.83
2023-02-23T19:08:59.065Z,22.10
2023-02-23T19:11:27.981Z,22.23
2023-02-23T19:13:56.264Z,21.53
2023-02-23T19:16:24.321Z,20.17
2023-02-23T19:18:51.879Z,21.33
2023-02-23T19:21:20.217Z,19.07
2023-02-23T19:23:47.979Z,21.03
2023-02-23T19:26:15.789Z,18.83
2023-02-23T19:28:43.777Z,26.07
2023-02-23T19:31:13.010Z,27.40
2023-02-23T19:33:40.801Z,23.40
2023-02-23T19:36:09.368Z,19.63
2023-02-23T19:38:37.137Z,16.63
2023-02-23T19:41:08.462Z,22.93
2023-02-23T19:43:36.281Z,23.37
2023-02-23T19:46:07.948Z,19.27
2023-02-23T19:48:36.989Z,20.47
2023-02-23T19:51:11.034Z,21.07
2023-02-23T19:53:39.054Z,19.13
2023-02-23T19:56:11.326Z,25.83
2023-02-23T19:58:38.984Z,20.23
2023-02-23T20:01:07.415Z,20.50
2023-02-23T20:03:35.337Z,25.07
2023-02-23T20:06:05.065Z,20.30
2023-02-23T20:08:32.715Z,27.63
2023-02-23T20:11:00.454Z,25.80
2023-02-23T20:13:28.125Z,27.00
2023-02-23T20:16:21.825Z,25.93
2023-02-23T20:18:49.486Z,22.13
2023-02-23T20:21:18.471Z,21.27
2023-02-23T20:23:47.019Z,23.83
2023-02-23T20:26:16.196Z,20.70
2023-02-23T20:28:43.846Z,24.83
2023-02-23T20:31:12.802Z,19.57
2023-02-23T20:33:40.548Z,21.90
2023-02-23T20:36:08.447Z,19.80
2023-02-23T20:38:36.154Z,20.73
2023-02-23T20:41:03.693Z,19.47
2023-02-23T20:43:31.924Z,24.20
2023-02-23T20:45:59.691Z,21.70
2023-02-23T20:48:28.422Z,26.17
2023-02-23T20:50:56.064Z,25.90
2023-02-23T20:53:24.287Z,23.63
2023-02-23T20:55:52.385Z,21.23
2023-02-23T20:58:20.010Z,27.70
2023-02-23T21:00:47.586Z,24.90
2023-02-23T21:03:15.273Z,16.33
2023-02-23T21:05:42.804Z,15.47
2023-02-23T21:08:10.382Z,9.90
2023-02-23T21:10:39.216Z,17.37
2023-02-23T21:13:07.235Z,17.33
2023-02-23T21:15:34.783Z,17.17
2023-02-23T21:18:02.692Z,17.03
2023-02-23T21:20:30.247Z,15.07
2023-02-23T21:22:57.880Z,14.90
2023-02-23T21:25:26.796Z,19.90
2023-02-23T21:27:54.403Z,21.53
2023-02-23T21:30:22.988Z,20.10
2023-02-23T21:32:51.639Z,26.07
2023-02-23T21:35:19.756Z,21.70
2023-02-23T21:37:47.432Z,27.60
2023-02-23T21:40:16.992Z,23.83
2023-02-23T21:42:44.607Z,23.83
2023-02-23T21:45:12.522Z,23.63
2023-02-23T21:47:42.069Z,20.97
2023-02-23T21:50:10.657Z,33.97
2023-02-23T21:52:38.285Z,22.67
2023-02-23T21:55:13.230Z,27.33
2023-02-23T21:57:47.457Z,23.13
2023-02-23T22:00:15.253Z,15.87
2023-02-23T22:02:43.075Z,12.17
2023-02-23T22:05:10.821Z,27.33
2023-02-23T22:07:38.489Z,21.93
2023-02-23T22:10:06.167Z,31.63
2023-02-23T22:12:33.756Z,13.67
2023-02-23T22:15:07.295Z,28.77
2023-02-23T22:17:34.905Z,25.03
2023-02-23T22:20:02.980Z,30.27
2023-02-23T22:22:30.617Z,21.63
2023-02-23T22:24:58.131Z,21.53
2023-02-23T22:27:25.734Z,29.90
2023-02-23T22:29:53.289Z,19.03
2023-02-23T22:32:21.120Z,33.23
2023-02-23T22:34:48.802Z,23.50
2023-02-23T22:37:16.426Z,21.73
2023-02-23T22:39:44.082Z,25.80
2023-02-23T22:42:11.675Z,24.83
2023-02-23T22:44:39.232Z,19.17
2023-02-23T22:47:07.498Z,20.63
2023-02-23T22:49:36.503Z,16.17
2023-02-23T22:52:04.068Z,18.17
2023-02-23T22:54:31.615Z,19.50
2023-02-23T22:56:59.196Z,28.40
2023-02-23T22:59:26.714Z,17.77
2023-02-23T23:01:54.418Z,20.33
2023-02-23T23:04:22.139Z,20.73
2023-02-23T23:06:50.004Z,21.30
2023-02-23T23:09:17.685Z,22.47
2023-02-23T23:11:46.443Z,15.90
2023-02-23T23:14:13.969Z,14.00
2023-02-23T23:16:43.000Z,21.30
2023-02-23T23:19:10.593Z,31.03
2023-02-23T23:21:38.944Z,21.17
2023-02-23T23:24:06.886Z,21.13
2023-02-23T23:26:35.796Z,20.80
2023-02-23T23:29:04.696Z,24.37
2023-02-23T23:31:33.333Z,27.20
2023-02-23T23:34:02.325Z,16.87
2023-02-23T23:36:31.459Z,19.70
2023-02-23T23:38:59.604Z,21.50
2023-02-23T23:41:27.937Z,21.37
2023-02-23T23:43:56.816Z,21.93
2023-02-23T23:46:25.907Z,20.03
2023-02-23T23:48:54.565Z,23.63
2023-02-23T23:51:26.091Z,22.80
2023-02-23T23:53:56.784Z,20.53
2023-02-23T23:56:24.611Z,25.90
2023-02-23T23:58:54.659Z,24.43
